Terminal Aerodrome Forecast
Issued by NWS

Home | Current Version | Previous Version | Text Only | Print | Product List | Glossary On
Versions: 1 2 3 4 5 6 7 8 9 10 11 12 13 14 15 16 17 18 19 20 21 22 23 24 25
000
FTUS41 KOKX 270520
TAFHPN
TAF
KHPN 270520Z 2706/2806 31005KT P6SM BKN070
     FM271400 32010KT P6SM BKN060
     FM271700 32011G17KT P6SM BKN060
     FM272000 32013G20KT P6SM BKN060
     FM280000 33011G17KT P6SM BKN060
      AMD NOT SKED=

USA.gov is the U.S. government's official web portal to all federal, state and local government web resources and services.